Stanwood, Michigan
Current Conditions -  °F | °C
As of 7:15 AM on Thursday 18 Dec 2014 (Local Time) from KRQB Reporting Station
Overcast Overcast  
Wind Chill: 21°   Ceiling: 1500
Heat Index: 29°   Visibility: 10mi
Dew Point: 27°   Wind: 9mph
Humidity: 90%   Direction: 340°NNW
Pressure: 30.17"   Gusts: NA
Location:  43.58°N, 85.45°W
Report Text: KRQB 181215Z AUTO 34008KT 10SM OVC015 M02/M03 A3017 RMK AO2 T10161030
Loading
Personal Weather Stations






























Interactive Weather Map New forecast layout! Learn more

10-Day Weather Forecast

Advertisements
Track Severe Weather on mobile